sensor_id;sensor_type;location;lat;lon;timestamp;P1;durP1;ratioP1;P2;durP2;ratioP2
38399;SDS011;24180;42.676;23.320;2024-02-04T00:01:56;2.90;;;2.70;;
38399;SDS011;24180;42.676;23.320;2024-02-04T00:04:22;2.58;;;2.40;;
38399;SDS011;24180;42.676;23.320;2024-02-04T00:06:48;2.55;;;2.38;;
38399;SDS011;24180;42.676;23.320;2024-02-04T00:09:14;3.28;;;2.08;;
38399;SDS011;24180;42.676;23.320;2024-02-04T00:11:39;2.60;;;2.47;;
38399;SDS011;24180;42.676;23.320;2024-02-04T00:14:05;2.40;;;2.25;;
38399;SDS011;24180;42.676;23.320;2024-02-04T00:16:30;2.67;;;2.47;;
38399;SDS011;24180;42.676;23.320;2024-02-04T00:18:56;2.50;;;2.35;;
38399;SDS011;24180;42.676;23.320;2024-02-04T00:21:21;2.63;;;2.42;;
38399;SDS011;24180;42.676;23.320;2024-02-04T00:23:46;2.63;;;1.95;;
38399;SDS011;24180;42.676;23.320;2024-02-04T00:26:12;3.03;;;2.55;;
38399;SDS011;24180;42.676;23.320;2024-02-04T00:28:37;3.28;;;2.47;;
38399;SDS011;24180;42.676;23.320;2024-02-04T00:31:04;2.05;;;1.95;;
38399;SDS011;24180;42.676;23.320;2024-02-04T00:33:30;2.20;;;2.10;;
38399;SDS011;24180;42.676;23.320;2024-02-04T00:35:55;1.70;;;1.60;;
38399;SDS011;24180;42.676;23.320;2024-02-04T00:38:21;2.78;;;1.88;;
38399;SDS011;24180;42.676;23.320;2024-02-04T00:40:46;2.22;;;2.13;;
38399;SDS011;24180;42.676;23.320;2024-02-04T00:43:11;3.20;;;3.00;;
38399;SDS011;24180;42.676;23.320;2024-02-04T00:45:37;6.22;;;1.92;;
38399;SDS011;24180;42.676;23.320;2024-02-04T00:48:02;3.50;;;2.10;;
38399;SDS011;24180;42.676;23.320;2024-02-04T00:50:28;2.85;;;2.65;;
38399;SDS011;24180;42.676;23.320;2024-02-04T00:52:53;2.55;;;1.98;;
38399;SDS011;24180;42.676;23.320;2024-02-04T00:55:19;2.60;;;2.40;;
38399;SDS011;24180;42.676;23.320;2024-02-04T00:57:45;2.47;;;2.28;;
38399;SDS011;24180;42.676;23.320;2024-02-04T01:00:11;1.98;;;1.88;;
38399;SDS011;24180;42.676;23.320;2024-02-04T01:02:38;2.50;;;2.30;;
38399;SDS011;24180;42.676;23.320;2024-02-04T01:05:04;1.95;;;1.83;;
38399;SDS011;24180;42.676;23.320;2024-02-04T01:07:29;1.98;;;1.88;;
38399;SDS011;24180;42.676;23.320;2024-02-04T01:09:55;2.67;;;2.42;;
38399;SDS011;24180;42.676;23.320;2024-02-04T01:12:20;2.53;;;2.42;;
38399;SDS011;24180;42.676;23.320;2024-02-04T01:14:46;2.40;;;2.30;;
38399;SDS011;24180;42.676;23.320;2024-02-04T01:17:11;1.20;;;1.20;;
38399;SDS011;24180;42.676;23.320;2024-02-04T01:19:37;2.50;;;2.30;;
38399;SDS011;24180;42.676;23.320;2024-02-04T01:22:02;2.10;;;2.00;;
38399;SDS011;24180;42.676;23.320;2024-02-04T01:24:28;2.58;;;2.42;;
38399;SDS011;24180;42.676;23.320;2024-02-04T01:26:53;2.47;;;2.28;;
38399;SDS011;24180;42.676;23.320;2024-02-04T01:29:19;6.53;;;4.80;;
38399;SDS011;24180;42.676;23.320;2024-02-04T01:31:44;8.57;;;4.65;;
38399;SDS011;24180;42.676;23.320;2024-02-04T01:34:10;16.25;;;5.75;;
38399;SDS011;24180;42.676;23.320;2024-02-04T01:36:35;15.95;;;8.65;;
38399;SDS011;24180;42.676;23.320;2024-02-04T01:39:01;33.70;;;13.82;;
38399;SDS011;24180;42.676;23.320;2024-02-04T01:41:27;42.00;;;14.85;;
38399;SDS011;24180;42.676;23.320;2024-02-04T01:43:53;38.80;;;16.77;;
38399;SDS011;24180;42.676;23.320;2024-02-04T01:46:18;24.13;;;11.82;;
38399;SDS011;24180;42.676;23.320;2024-02-04T01:48:44;21.52;;;8.90;;
38399;SDS011;24180;42.676;23.320;2024-02-04T01:51:10;11.88;;;7.20;;
38399;SDS011;24180;42.676;23.320;2024-02-04T01:53:37;5.35;;;3.83;;
38399;SDS011;24180;42.676;23.320;2024-02-04T01:56:05;4.22;;;3.55;;
38399;SDS011;24180;42.676;23.320;2024-02-04T01:58:31;2.22;;;1.80;;
38399;SDS011;24180;42.676;23.320;2024-02-04T02:00:58;2.50;;;2.30;;
38399;SDS011;24180;42.676;23.320;2024-02-04T02:03:23;3.10;;;2.78;;
38399;SDS011;24180;42.676;23.320;2024-02-04T02:05:53;2.40;;;2.13;;
38399;SDS011;24180;42.676;23.320;2024-02-04T02:08:19;2.03;;;1.92;;
38399;SDS011;24180;42.676;23.320;2024-02-04T02:10:46;1.45;;;1.42;;
38399;SDS011;24180;42.676;23.320;2024-02-04T02:15:52;2.05;;;1.95;;
38399;SDS011;24180;42.676;23.320;2024-02-04T02:18:23;1.85;;;1.75;;
38399;SDS011;24180;42.676;23.320;2024-02-04T02:23:48;2.05;;;1.90;;
38399;SDS011;24180;42.676;23.320;2024-02-04T02:26:28;1.90;;;1.80;;
38399;SDS011;24180;42.676;23.320;2024-02-04T02:28:56;3.08;;;1.95;;
38399;SDS011;24180;42.676;23.320;2024-02-04T02:31:22;3.67;;;1.98;;
38399;SDS011;24180;42.676;23.320;2024-02-04T02:33:47;1.63;;;1.52;;
38399;SDS011;24180;42.676;23.320;2024-02-04T02:36:14;1.33;;;1.30;;
38399;SDS011;24180;42.676;23.320;2024-02-04T02:38:53;2.13;;;2.03;;
38399;SDS011;24180;42.676;23.320;2024-02-04T02:41:30;1.52;;;1.52;;
38399;SDS011;24180;42.676;23.320;2024-02-04T02:43:58;2.03;;;1.92;;
38399;SDS011;24180;42.676;23.320;2024-02-04T02:46:26;2.17;;;1.85;;
38399;SDS011;24180;42.676;23.320;2024-02-04T02:48:52;1.58;;;1.48;;
38399;SDS011;24180;42.676;23.320;2024-02-04T02:51:18;3.13;;;1.95;;
38399;SDS011;24180;42.676;23.320;2024-02-04T02:53:43;2.03;;;1.92;;
38399;SDS011;24180;42.676;23.320;2024-02-04T02:56:09;1.98;;;1.88;;
38399;SDS011;24180;42.676;23.320;2024-02-04T02:58:34;1.98;;;1.88;;
38399;SDS011;24180;42.676;23.320;2024-02-04T03:01:00;2.10;;;2.00;;
38399;SDS011;24180;42.676;23.320;2024-02-04T03:03:25;2.67;;;2.00;;
38399;SDS011;24180;42.676;23.320;2024-02-04T03:05:51;1.70;;;1.60;;
38399;SDS011;24180;42.676;23.320;2024-02-04T03:08:16;1.80;;;1.70;;
38399;SDS011;24180;42.676;23.320;2024-02-04T03:10:42;2.17;;;1.70;;
38399;SDS011;24180;42.676;23.320;2024-02-04T03:13:07;1.60;;;1.20;;
38399;SDS011;24180;42.676;23.320;2024-02-04T03:15:33;2.20;;;1.90;;
38399;SDS011;24180;42.676;23.320;2024-02-04T03:17:59;1.33;;;1.20;;
38399;SDS011;24180;42.676;23.320;2024-02-04T03:20:24;1.85;;;1.63;;
38399;SDS011;24180;42.676;23.320;2024-02-04T03:22:49;2.17;;;1.95;;
38399;SDS011;24180;42.676;23.320;2024-02-04T03:25:15;1.73;;;1.63;;
38399;SDS011;24180;42.676;23.320;2024-02-04T03:27:40;1.90;;;1.80;;
38399;SDS011;24180;42.676;23.320;2024-02-04T03:30:06;2.30;;;1.02;;
38399;SDS011;24180;42.676;23.320;2024-02-04T03:32:32;2.00;;;1.90;;
38399;SDS011;24180;42.676;23.320;2024-02-04T03:35:01;3.13;;;1.85;;
38399;SDS011;24180;42.676;23.320;2024-02-04T03:37:27;1.83;;;1.73;;
38399;SDS011;24180;42.676;23.320;2024-02-04T03:39:53;1.65;;;1.48;;
38399;SDS011;24180;42.676;23.320;2024-02-04T03:42:18;1.55;;;1.48;;
38399;SDS011;24180;42.676;23.320;2024-02-04T03:44:46;1.52;;;1.42;;
38399;SDS011;24180;42.676;23.320;2024-02-04T03:47:12;1.73;;;1.63;;
38399;SDS011;24180;42.676;23.320;2024-02-04T03:49:37;4.88;;;1.52;;
38399;SDS011;24180;42.676;23.320;2024-02-04T03:52:03;2.13;;;2.03;;
38399;SDS011;24180;42.676;23.320;2024-02-04T03:54:29;1.58;;;1.42;;
38399;SDS011;24180;42.676;23.320;2024-02-04T03:56:54;1.40;;;1.00;;
38399;SDS011;24180;42.676;23.320;2024-02-04T03:59:19;1.38;;;1.38;;
38399;SDS011;24180;42.676;23.320;2024-02-04T04:01:48;1.67;;;1.58;;
38399;SDS011;24180;42.676;23.320;2024-02-04T04:04:15;1.58;;;1.48;;
38399;SDS011;24180;42.676;23.320;2024-02-04T04:06:44;2.47;;;1.77;;
38399;SDS011;24180;42.676;23.320;2024-02-04T04:09:10;1.60;;;1.50;;
38399;SDS011;24180;42.676;23.320;2024-02-04T04:11:36;2.35;;;1.55;;
38399;SDS011;24180;42.676;23.320;2024-02-04T04:14:01;2.17;;;2.08;;
38399;SDS011;24180;42.676;23.320;2024-02-04T04:16:27;1.92;;;1.70;;
38399;SDS011;24180;42.676;23.320;2024-02-04T04:18:53;1.90;;;1.80;;
38399;SDS011;24180;42.676;23.320;2024-02-04T04:21:18;1.52;;;1.42;;
38399;SDS011;24180;42.676;23.320;2024-02-04T04:23:44;1.73;;;1.63;;
38399;SDS011;24180;42.676;23.320;2024-02-04T04:26:09;1.95;;;1.85;;
38399;SDS011;24180;42.676;23.320;2024-02-04T04:28:35;1.90;;;1.80;;
38399;SDS011;24180;42.676;23.320;2024-02-04T04:31:00;1.20;;;1.20;;
38399;SDS011;24180;42.676;23.320;2024-02-04T04:33:26;1.98;;;1.88;;
38399;SDS011;24180;42.676;23.320;2024-02-04T04:35:51;1.30;;;1.30;;
38399;SDS011;24180;42.676;23.320;2024-02-04T04:38:17;1.67;;;1.58;;
38399;SDS011;24180;42.676;23.320;2024-02-04T04:40:42;1.60;;;1.50;;
38399;SDS011;24180;42.676;23.320;2024-02-04T04:43:08;2.78;;;2.35;;
38399;SDS011;24180;42.676;23.320;2024-02-04T04:45:34;2.05;;;1.95;;
38399;SDS011;24180;42.676;23.320;2024-02-04T04:47:59;1.83;;;1.73;;
38399;SDS011;24180;42.676;23.320;2024-02-04T04:50:25;2.33;;;2.15;;
38399;SDS011;24180;42.676;23.320;2024-02-04T04:52:50;1.67;;;1.58;;
38399;SDS011;24180;42.676;23.320;2024-02-04T04:55:16;1.88;;;1.60;;
38399;SDS011;24180;42.676;23.320;2024-02-04T04:57:41;1.42;;;1.33;;
38399;SDS011;24180;42.676;23.320;2024-02-04T05:00:07;1.75;;;1.52;;
38399;SDS011;24180;42.676;23.320;2024-02-04T05:02:35;1.70;;;1.60;;
38399;SDS011;24180;42.676;23.320;2024-02-04T05:05:01;1.67;;;1.58;;
38399;SDS011;24180;42.676;23.320;2024-02-04T05:07:26;1.25;;;1.15;;
38399;SDS011;24180;42.676;23.320;2024-02-04T05:09:52;1.38;;;1.38;;
38399;SDS011;24180;42.676;23.320;2024-02-04T05:12:18;1.27;;;1.27;;
38399;SDS011;24180;42.676;23.320;2024-02-04T05:14:43;1.45;;;1.40;;
38399;SDS011;24180;42.676;23.320;2024-02-04T05:17:09;1.70;;;1.60;;
38399;SDS011;24180;42.676;23.320;2024-02-04T05:19:34;1.40;;;1.30;;
38399;SDS011;24180;42.676;23.320;2024-02-04T05:22:00;1.98;;;1.88;;
38399;SDS011;24180;42.676;23.320;2024-02-04T05:24:26;1.65;;;1.55;;
38399;SDS011;24180;42.676;23.320;2024-02-04T05:26:52;2.08;;;1.88;;
38399;SDS011;24180;42.676;23.320;2024-02-04T05:29:17;1.95;;;1.83;;
38399;SDS011;24180;42.676;23.320;2024-02-04T05:31:42;2.13;;;1.98;;
38399;SDS011;24180;42.676;23.320;2024-02-04T05:34:08;2.00;;;1.80;;
38399;SDS011;24180;42.676;23.320;2024-02-04T05:36:35;1.52;;;1.42;;
38399;SDS011;24180;42.676;23.320;2024-02-04T05:39:13;1.30;;;1.30;;
38399;SDS011;24180;42.676;23.320;2024-02-04T05:41:40;1.50;;;1.40;;
38399;SDS011;24180;42.676;23.320;2024-02-04T05:44:06;2.00;;;1.90;;
38399;SDS011;24180;42.676;23.320;2024-02-04T05:46:34;2.10;;;1.60;;
38399;SDS011;24180;42.676;23.320;2024-02-04T05:49:00;2.72;;;2.53;;
38399;SDS011;24180;42.676;23.320;2024-02-04T05:51:27;2.25;;;2.10;;
38399;SDS011;24180;42.676;23.320;2024-02-04T05:53:53;1.58;;;1.20;;
38399;SDS011;24180;42.676;23.320;2024-02-04T05:56:19;2.42;;;2.00;;
38399;SDS011;24180;42.676;23.320;2024-02-04T05:58:45;1.70;;;1.60;;
38399;SDS011;24180;42.676;23.320;2024-02-04T06:01:11;1.58;;;1.30;;
38399;SDS011;24180;42.676;23.320;2024-02-04T06:03:36;1.38;;;1.30;;
38399;SDS011;24180;42.676;23.320;2024-02-04T06:06:02;1.60;;;1.50;;
38399;SDS011;24180;42.676;23.320;2024-02-04T06:08:27;1.48;;;1.48;;
38399;SDS011;24180;42.676;23.320;2024-02-04T06:10:53;1.73;;;1.63;;
38399;SDS011;24180;42.676;23.320;2024-02-04T06:13:18;1.75;;;1.65;;
38399;SDS011;24180;42.676;23.320;2024-02-04T06:15:44;3.50;;;1.95;;
38399;SDS011;24180;42.676;23.320;2024-02-04T06:18:10;3.95;;;2.08;;
38399;SDS011;24180;42.676;23.320;2024-02-04T06:20:35;1.42;;;1.33;;
38399;SDS011;24180;42.676;23.320;2024-02-04T06:23:01;1.88;;;1.77;;
38399;SDS011;24180;42.676;23.320;2024-02-04T06:25:27;2.50;;;2.13;;
38399;SDS011;24180;42.676;23.320;2024-02-04T06:27:52;2.05;;;1.70;;
38399;SDS011;24180;42.676;23.320;2024-02-04T06:30:18;2.92;;;2.63;;
38399;SDS011;24180;42.676;23.320;2024-02-04T06:32:43;2.15;;;2.03;;
38399;SDS011;24180;42.676;23.320;2024-02-04T06:35:09;2.00;;;1.90;;
38399;SDS011;24180;42.676;23.320;2024-02-04T06:37:34;2.22;;;2.03;;
38399;SDS011;24180;42.676;23.320;2024-02-04T06:40:00;2.05;;;1.73;;
38399;SDS011;24180;42.676;23.320;2024-02-04T06:42:25;4.35;;;3.42;;
38399;SDS011;24180;42.676;23.320;2024-02-04T06:44:51;2.30;;;2.20;;
38399;SDS011;24180;42.676;23.320;2024-02-04T06:47:16;1.85;;;1.58;;
38399;SDS011;24180;42.676;23.320;2024-02-04T06:49:45;1.67;;;1.50;;
38399;SDS011;24180;42.676;23.320;2024-02-04T06:52:10;2.33;;;2.20;;
38399;SDS011;24180;42.676;23.320;2024-02-04T06:54:36;1.95;;;1.75;;
38399;SDS011;24180;42.676;23.320;2024-02-04T06:57:01;1.42;;;1.42;;
38399;SDS011;24180;42.676;23.320;2024-02-04T06:59:27;2.53;;;1.48;;
38399;SDS011;24180;42.676;23.320;2024-02-04T07:01:52;1.50;;;1.40;;
38399;SDS011;24180;42.676;23.320;2024-02-04T07:04:18;1.90;;;1.80;;
38399;SDS011;24180;42.676;23.320;2024-02-04T07:06:46;1.70;;;1.60;;
38399;SDS011;24180;42.676;23.320;2024-02-04T07:09:12;5.65;;;2.05;;
38399;SDS011;24180;42.676;23.320;2024-02-04T07:11:37;2.58;;;1.80;;
38399;SDS011;24180;42.676;23.320;2024-02-04T07:14:03;1.77;;;1.67;;
38399;SDS011;24180;42.676;23.320;2024-02-04T07:16:29;1.55;;;1.55;;
38399;SDS011;24180;42.676;23.320;2024-02-04T07:18:55;1.63;;;1.52;;
38399;SDS011;24180;42.676;23.320;2024-02-04T07:21:21;3.78;;;2.22;;
38399;SDS011;24180;42.676;23.320;2024-02-04T07:23:46;2.40;;;1.60;;
38399;SDS011;24180;42.676;23.320;2024-02-04T07:26:12;2.47;;;1.88;;
38399;SDS011;24180;42.676;23.320;2024-02-04T07:28:37;2.42;;;1.92;;
38399;SDS011;24180;42.676;23.320;2024-02-04T07:31:03;1.58;;;1.23;;
38399;SDS011;24180;42.676;23.320;2024-02-04T07:33:28;2.17;;;2.03;;
38399;SDS011;24180;42.676;23.320;2024-02-04T07:35:54;6.80;;;1.80;;
38399;SDS011;24180;42.676;23.320;2024-02-04T07:38:20;1.45;;;1.38;;
38399;SDS011;24180;42.676;23.320;2024-02-04T07:40:45;1.75;;;1.65;;
38399;SDS011;24180;42.676;23.320;2024-02-04T07:43:11;5.32;;;2.13;;
38399;SDS011;24180;42.676;23.320;2024-02-04T07:45:36;1.48;;;1.25;;
38399;SDS011;24180;42.676;23.320;2024-02-04T07:48:03;1.83;;;1.73;;
38399;SDS011;24180;42.676;23.320;2024-02-04T07:50:29;1.92;;;1.83;;
38399;SDS011;24180;42.676;23.320;2024-02-04T07:52:54;2.15;;;1.95;;
38399;SDS011;24180;42.676;23.320;2024-02-04T07:55:20;2.60;;;1.70;;
38399;SDS011;24180;42.676;23.320;2024-02-04T07:57:45;2.40;;;2.20;;
38399;SDS011;24180;42.676;23.320;2024-02-04T08:00:11;1.70;;;1.60;;
38399;SDS011;24180;42.676;23.320;2024-02-04T08:02:37;2.70;;;1.33;;
38399;SDS011;24180;42.676;23.320;2024-02-04T08:05:03;1.88;;;1.58;;
38399;SDS011;24180;42.676;23.320;2024-02-04T08:07:30;1.55;;;1.45;;
38399;SDS011;24180;42.676;23.320;2024-02-04T08:09:56;2.60;;;1.35;;
38399;SDS011;24180;42.676;23.320;2024-02-04T08:12:22;1.92;;;1.55;;
38399;SDS011;24180;42.676;23.320;2024-02-04T08:14:47;1.80;;;1.70;;
38399;SDS011;24180;42.676;23.320;2024-02-04T08:17:13;3.60;;;1.98;;
38399;SDS011;24180;42.676;23.320;2024-02-04T08:19:38;2.65;;;1.58;;
38399;SDS011;24180;42.676;23.320;2024-02-04T08:22:04;0.88;;;0.88;;
38399;SDS011;24180;42.676;23.320;2024-02-04T08:24:30;1.58;;;1.42;;
38399;SDS011;24180;42.676;23.320;2024-02-04T08:26:57;2.30;;;1.70;;
38399;SDS011;24180;42.676;23.320;2024-02-04T08:29:23;1.50;;;1.50;;
38399;SDS011;24180;42.676;23.320;2024-02-04T08:31:49;1.60;;;1.50;;
38399;SDS011;24180;42.676;23.320;2024-02-04T08:34:15;2.50;;;1.77;;
38399;SDS011;24180;42.676;23.320;2024-02-04T08:36:41;0.95;;;0.95;;
38399;SDS011;24180;42.676;23.320;2024-02-04T08:39:06;1.50;;;1.40;;
38399;SDS011;24180;42.676;23.320;2024-02-04T08:41:32;0.90;;;0.90;;
38399;SDS011;24180;42.676;23.320;2024-02-04T08:43:57;1.40;;;0.98;;
38399;SDS011;24180;42.676;23.320;2024-02-04T08:46:23;1.67;;;1.38;;
38399;SDS011;24180;42.676;23.320;2024-02-04T08:48:48;3.45;;;0.93;;
38399;SDS011;24180;42.676;23.320;2024-02-04T08:51:14;2.67;;;1.30;;
38399;SDS011;24180;42.676;23.320;2024-02-04T08:56:06;1.10;;;1.10;;
38399;SDS011;24180;42.676;23.320;2024-02-04T08:58:32;1.92;;;1.83;;
38399;SDS011;24180;42.676;23.320;2024-02-04T09:00:57;1.88;;;1.75;;
38399;SDS011;24180;42.676;23.320;2024-02-04T09:03:23;1.60;;;1.52;;
38399;SDS011;24180;42.676;23.320;2024-02-04T09:05:50;1.00;;;0.90;;
38399;SDS011;24180;42.676;23.320;2024-02-04T09:08:15;1.42;;;1.17;;
38399;SDS011;24180;42.676;23.320;2024-02-04T09:10:41;1.88;;;1.73;;
38399;SDS011;24180;42.676;23.320;2024-02-04T09:13:06;1.10;;;1.00;;
38399;SDS011;24180;42.676;23.320;2024-02-04T09:15:32;1.20;;;1.20;;
38399;SDS011;24180;42.676;23.320;2024-02-04T09:17:57;1.95;;;1.85;;
38399;SDS011;24180;42.676;23.320;2024-02-04T09:20:23;1.58;;;1.48;;
38399;SDS011;24180;42.676;23.320;2024-02-04T09:22:48;1.50;;;1.40;;
38399;SDS011;24180;42.676;23.320;2024-02-04T09:25:14;1.45;;;1.17;;
38399;SDS011;24180;42.676;23.320;2024-02-04T09:27:39;1.45;;;1.33;;
38399;SDS011;24180;42.676;23.320;2024-02-04T09:30:05;2.25;;;2.05;;
38399;SDS011;24180;42.676;23.320;2024-02-04T09:32:31;1.92;;;1.83;;
38399;SDS011;24180;42.676;23.320;2024-02-04T09:34:57;1.88;;;1.33;;
38399;SDS011;24180;42.676;23.320;2024-02-04T09:37:23;0.70;;;0.70;;
38399;SDS011;24180;42.676;23.320;2024-02-04T09:39:49;1.10;;;1.00;;
38399;SDS011;24180;42.676;23.320;2024-02-04T09:42:21;1.20;;;1.20;;
38399;SDS011;24180;42.676;23.320;2024-02-04T09:44:48;1.13;;;1.02;;
38399;SDS011;24180;42.676;23.320;2024-02-04T09:47:15;1.20;;;1.15;;
38399;SDS011;24180;42.676;23.320;2024-02-04T09:49:41;1.35;;;1.30;;
38399;SDS011;24180;42.676;23.320;2024-02-04T09:52:07;1.40;;;1.38;;
38399;SDS011;24180;42.676;23.320;2024-02-04T09:54:48;1.63;;;1.30;;
38399;SDS011;24180;42.676;23.320;2024-02-04T09:57:17;1.52;;;1.42;;
38399;SDS011;24180;42.676;23.320;2024-02-04T09:59:46;6.38;;;1.70;;
38399;SDS011;24180;42.676;23.320;2024-02-04T10:02:12;1.52;;;1.20;;
38399;SDS011;24180;42.676;23.320;2024-02-04T10:04:38;2.08;;;1.45;;
38399;SDS011;24180;42.676;23.320;2024-02-04T10:07:04;1.67;;;1.52;;
38399;SDS011;24180;42.676;23.320;2024-02-04T10:09:29;1.77;;;1.10;;
38399;SDS011;24180;42.676;23.320;2024-02-04T10:11:56;1.33;;;1.17;;
38399;SDS011;24180;42.676;23.320;2024-02-04T10:14:22;1.08;;;1.08;;
38399;SDS011;24180;42.676;23.320;2024-02-04T10:16:48;0.60;;;0.60;;
38399;SDS011;24180;42.676;23.320;2024-02-04T10:19:14;1.17;;;1.00;;
38399;SDS011;24180;42.676;23.320;2024-02-04T10:21:40;0.73;;;0.73;;
38399;SDS011;24180;42.676;23.320;2024-02-04T10:24:06;1.20;;;1.08;;
38399;SDS011;24180;42.676;23.320;2024-02-04T10:26:32;1.10;;;1.10;;
38399;SDS011;24180;42.676;23.320;2024-02-04T10:29:01;0.70;;;0.70;;
38399;SDS011;24180;42.676;23.320;2024-02-04T10:31:27;1.10;;;1.10;;
38399;SDS011;24180;42.676;23.320;2024-02-04T10:33:54;1.00;;;1.00;;
38399;SDS011;24180;42.676;23.320;2024-02-04T10:38:45;0.55;;;0.55;;
38399;SDS011;24180;42.676;23.320;2024-02-04T10:41:15;1.45;;;1.35;;
38399;SDS011;24180;42.676;23.320;2024-02-04T10:43:42;1.00;;;1.00;;
38399;SDS011;24180;42.676;23.320;2024-02-04T10:48:43;1.13;;;1.13;;
38399;SDS011;24180;42.676;23.320;2024-02-04T10:51:14;0.88;;;0.70;;
38399;SDS011;24180;42.676;23.320;2024-02-04T10:53:44;1.05;;;1.05;;
38399;SDS011;24180;42.676;23.320;2024-02-04T10:56:14;2.35;;;1.35;;
38399;SDS011;24180;42.676;23.320;2024-02-04T10:58:41;1.27;;;1.27;;
38399;SDS011;24180;42.676;23.320;2024-02-04T11:01:10;1.70;;;1.60;;
38399;SDS011;24180;42.676;23.320;2024-02-04T11:03:35;0.77;;;0.77;;
38399;SDS011;24180;42.676;23.320;2024-02-04T11:06:03;0.63;;;0.63;;
38399;SDS011;24180;42.676;23.320;2024-02-04T11:08:29;1.00;;;1.00;;
38399;SDS011;24180;42.676;23.320;2024-02-04T11:10:56;0.80;;;0.80;;
38399;SDS011;24180;42.676;23.320;2024-02-04T11:13:21;1.10;;;1.10;;
38399;SDS011;24180;42.676;23.320;2024-02-04T11:15:48;1.67;;;1.20;;
38399;SDS011;24180;42.676;23.320;2024-02-04T11:26:08;4.43;;;1.13;;
38399;SDS011;24180;42.676;23.320;2024-02-04T11:28:34;0.85;;;0.85;;
38399;SDS011;24180;42.676;23.320;2024-02-04T11:31:01;1.75;;;0.90;;
38399;SDS011;24180;42.676;23.320;2024-02-04T11:33:27;1.13;;;1.13;;
38399;SDS011;24180;42.676;23.320;2024-02-04T11:36:26;1.60;;;0.70;;
38399;SDS011;24180;42.676;23.320;2024-02-04T11:38:49;1.17;;;1.17;;
38399;SDS011;24180;42.676;23.320;2024-02-04T11:41:21;1.88;;;0.82;;
38399;SDS011;24180;42.676;23.320;2024-02-04T11:43:55;1.10;;;1.10;;
38399;SDS011;24180;42.676;23.320;2024-02-04T11:46:21;0.90;;;0.90;;
38399;SDS011;24180;42.676;23.320;2024-02-04T11:48:53;0.82;;;0.82;;
38399;SDS011;24180;42.676;23.320;2024-02-04T11:51:21;1.23;;;0.98;;
38399;SDS011;24180;42.676;23.320;2024-02-04T11:53:49;0.55;;;0.55;;
38399;SDS011;24180;42.676;23.320;2024-02-04T11:56:18;1.38;;;1.27;;
38399;SDS011;24180;42.676;23.320;2024-02-04T11:58:44;0.68;;;0.68;;
38399;SDS011;24180;42.676;23.320;2024-02-04T12:01:10;1.55;;;0.95;;
38399;SDS011;24180;42.676;23.320;2024-02-04T12:03:36;0.90;;;0.90;;
38399;SDS011;24180;42.676;23.320;2024-02-04T12:06:02;1.23;;;1.23;;
38399;SDS011;24180;42.676;23.320;2024-02-04T12:08:29;1.38;;;0.80;;
38399;SDS011;24180;42.676;23.320;2024-02-04T12:10:56;1.00;;;1.00;;
38399;SDS011;24180;42.676;23.320;2024-02-04T12:13:23;3.08;;;1.60;;
38399;SDS011;24180;42.676;23.320;2024-02-04T12:15:49;1.38;;;1.27;;
38399;SDS011;24180;42.676;23.320;2024-02-04T12:18:15;1.00;;;1.00;;
38399;SDS011;24180;42.676;23.320;2024-02-04T12:20:45;1.00;;;1.00;;
38399;SDS011;24180;42.676;23.320;2024-02-04T12:23:12;1.20;;;1.20;;
38399;SDS011;24180;42.676;23.320;2024-02-04T12:25:37;0.90;;;0.90;;
38399;SDS011;24180;42.676;23.320;2024-02-04T12:28:03;2.67;;;0.63;;
38399;SDS011;24180;42.676;23.320;2024-02-04T12:30:29;1.67;;;1.58;;
38399;SDS011;24180;42.676;23.320;2024-02-04T12:32:56;1.58;;;1.48;;
38399;SDS011;24180;42.676;23.320;2024-02-04T12:35:22;1.95;;;1.83;;
38399;SDS011;24180;42.676;23.320;2024-02-04T12:37:51;1.48;;;1.38;;
38399;SDS011;24180;42.676;23.320;2024-02-04T12:40:24;1.50;;;1.40;;
38399;SDS011;24180;42.676;23.320;2024-02-04T12:45:29;1.50;;;1.40;;
38399;SDS011;24180;42.676;23.320;2024-02-04T12:47:56;2.67;;;1.75;;
38399;SDS011;24180;42.676;23.320;2024-02-04T12:50:22;1.65;;;1.65;;
38399;SDS011;24180;42.676;23.320;2024-02-04T12:52:49;3.78;;;1.38;;
38399;SDS011;24180;42.676;23.320;2024-02-04T12:55:27;1.30;;;1.20;;
38399;SDS011;24180;42.676;23.320;2024-02-04T12:58:03;4.07;;;1.73;;
38399;SDS011;24180;42.676;23.320;2024-02-04T13:02:59;1.48;;;1.33;;
38399;SDS011;24180;42.676;23.320;2024-02-04T13:05:25;0.98;;;0.98;;
38399;SDS011;24180;42.676;23.320;2024-02-04T13:07:54;2.00;;;1.90;;
38399;SDS011;24180;42.676;23.320;2024-02-04T13:10:24;1.50;;;1.40;;
38399;SDS011;24180;42.676;23.320;2024-02-04T13:13:04;1.40;;;1.40;;
38399;SDS011;24180;42.676;23.320;2024-02-04T13:15:32;0.75;;;0.75;;
38399;SDS011;24180;42.676;23.320;2024-02-04T13:18:00;1.15;;;1.10;;
38399;SDS011;24180;42.676;23.320;2024-02-04T13:20:25;1.17;;;1.10;;
38399;SDS011;24180;42.676;23.320;2024-02-04T13:22:51;0.88;;;0.88;;
38399;SDS011;24180;42.676;23.320;2024-02-04T13:25:19;2.85;;;1.15;;
38399;SDS011;24180;42.676;23.320;2024-02-04T13:27:45;0.90;;;0.90;;
38399;SDS011;24180;42.676;23.320;2024-02-04T13:30:11;1.67;;;1.55;;
38399;SDS011;24180;42.676;23.320;2024-02-04T13:32:40;1.30;;;1.30;;
38399;SDS011;24180;42.676;23.320;2024-02-04T13:35:07;7.28;;;1.40;;
38399;SDS011;24180;42.676;23.320;2024-02-04T13:37:39;2.15;;;2.05;;
38399;SDS011;24180;42.676;23.320;2024-02-04T13:40:05;3.00;;;0.80;;
38399;SDS011;24180;42.676;23.320;2024-02-04T13:42:32;1.10;;;1.10;;
38399;SDS011;24180;42.676;23.320;2024-02-04T13:44:58;6.53;;;0.95;;
38399;SDS011;24180;42.676;23.320;2024-02-04T13:47:25;0.70;;;0.70;;
38399;SDS011;24180;42.676;23.320;2024-02-04T13:49:51;2.45;;;1.50;;
38399;SDS011;24180;42.676;23.320;2024-02-04T13:52:16;2.40;;;1.63;;
38399;SDS011;24180;42.676;23.320;2024-02-04T13:54:42;0.73;;;0.70;;
38399;SDS011;24180;42.676;23.320;2024-02-04T13:57:08;1.70;;;1.60;;
38399;SDS011;24180;42.676;23.320;2024-02-04T13:59:34;1.25;;;1.15;;
38399;SDS011;24180;42.676;23.320;2024-02-04T14:02:00;1.65;;;1.55;;
38399;SDS011;24180;42.676;23.320;2024-02-04T14:04:26;1.50;;;1.45;;
38399;SDS011;24180;42.676;23.320;2024-02-04T14:06:51;1.38;;;1.38;;
38399;SDS011;24180;42.676;23.320;2024-02-04T14:09:17;6.20;;;1.98;;
38399;SDS011;24180;42.676;23.320;2024-02-04T14:11:42;1.40;;;1.30;;
38399;SDS011;24180;42.676;23.320;2024-02-04T14:14:08;1.40;;;1.30;;
38399;SDS011;24180;42.676;23.320;2024-02-04T14:16:33;2.28;;;1.73;;
38399;SDS011;24180;42.676;23.320;2024-02-04T14:18:59;1.27;;;1.27;;
38399;SDS011;24180;42.676;23.320;2024-02-04T14:21:24;1.55;;;1.50;;
38399;SDS011;24180;42.676;23.320;2024-02-04T14:23:50;2.95;;;2.72;;
38399;SDS011;24180;42.676;23.320;2024-02-04T14:26:20;3.30;;;3.05;;
38399;SDS011;24180;42.676;23.320;2024-02-04T14:28:46;2.00;;;1.90;;
38399;SDS011;24180;42.676;23.320;2024-02-04T14:31:11;2.17;;;2.08;;
38399;SDS011;24180;42.676;23.320;2024-02-04T14:33:37;1.85;;;1.75;;
38399;SDS011;24180;42.676;23.320;2024-02-04T14:36:02;1.80;;;1.70;;
38399;SDS011;24180;42.676;23.320;2024-02-04T14:38:29;1.90;;;1.80;;
38399;SDS011;24180;42.676;23.320;2024-02-04T14:40:58;2.28;;;2.08;;
38399;SDS011;24180;42.676;23.320;2024-02-04T14:43:24;1.38;;;1.27;;
38399;SDS011;24180;42.676;23.320;2024-02-04T14:45:50;1.80;;;1.70;;
38399;SDS011;24180;42.676;23.320;2024-02-04T14:48:15;1.70;;;1.60;;
38399;SDS011;24180;42.676;23.320;2024-02-04T14:50:41;2.30;;;2.17;;
38399;SDS011;24180;42.676;23.320;2024-02-04T14:53:07;1.60;;;1.50;;
38399;SDS011;24180;42.676;23.320;2024-02-04T14:55:32;2.25;;;2.03;;